KPDX/PDX METAR and TAF weather

Enter ICAO airport designator
Station Type Date Time Source
KPDX METAR 2020/09/23 01:53 UTC NOAA

KPDX 230153Z 00000KT 10SM FEW100 BKN160 OVC230 22/12 A2998 RMK AO2 SLP153 ACSL E T02170117


Station Type Date Time Source
KPDX Decoded METAR 2020/09/23 01:53 UTC NOAA

PORTLAND INTERNATIONAL AIRPORT, OR, United States (KPDX) 45-35N 122-36W 7M
Sep 22, 2020 - 09:53 PM EDT / 2020.09.23 0153 UTC
Wind: Calm:0
Visibility: 10 mile(s):0
Sky conditions: overcast
Temperature: 71.1 F (21.7 C)
Dew Point: 53.1 F (11.7 C)
Relative Humidity: 52%
Pressure (altimeter): 29.98 in. Hg (1015 hPa)
ob: KPDX 230153Z 00000KT 10SM FEW100 BKN160 OVC230 22/12 A2998 RMK AO2 SLP153 ACSL E T02170117
cycle: 2

Station Type Date Time Source
KPDX TAF 2020/09/22 21:59 UTC NOAA

TAF
AMD KPDX 222059Z 2221/2318 VRB05KT P6SM SCT040 BKN150
FM231000 15014KT P6SM SCT025 BKN040 OVC070

Example: see airport list